Bemidji, MN

9:32 PM CDT on September 21, 2014 (GMT -0500)
Bemidji-Beltrami County | Change Station
CLOSE
Current Station
Airport
Location: Bemidji,
Elevation: 1378 ft
Nearby Weather Stations

Elev 1378 ft 47.51 °N, 94.93 °W | Updated 18 minutes ago

Overcast
Overcast
54 °F
Feels Like 54 °F
N
5
Wind Variable Wind from West

Today
High -- | Low -- °F
--% Chance of Precip.
Yesterday
High -- | Low -- °F
Precip. -- in
7:04 AM 7:19 PM
Waning Crescent, 4% visible
Pressure 30.21 in
Visibility 10.0 miles
Clouds Overcast 3100 ft
Dew Point 50 °F
Humidity 85%
Rainfall 0.00 in
Snow Depth Not available.
UV 0 out of 12
Pollen 3.10 out of 12
Air Quality Not available.
Flu Activity Not available.
METAR KBJI 220214Z AUTO 27004KT 10SM OVC031 12/10 A3021 RMK AO2 T01220098

More Conditions Fewer Conditions

Pressure 30.21 in
Visibility 10.0 miles
Clouds Overcast 3100 ft
Dew Point 50 °F
Humidity 85%
Rainfall 0.00 in
Snow Depth Not available.
UV 0 out of 12
Pollen 3.10 out of 12
Air Quality Not available.
Flu Activity Not available.
METAR KBJI 220214Z AUTO 27004KT 10SM OVC031 12/10 A3021 RMK AO2 T01220098

More Conditions Fewer Conditions

10-Day Weather Forecast

Almanac

Astronomy

Sep. 21, 2014 Rise Set
Actual Time 7:04 AM CDT 7:19 PM CDT
Civil Twilight 6:34 AM CDT 7:49 PM CDT
Nautical Twilight 5:57 AM CDT 8:25 PM CDT
Astronomical Twilight 5:20 AM CDT 9:03 PM CDT
Moon 4:31 AM CDT (9/21) 6:01 PM CDT (9/21)
Length of Visible Light 13h 15m
Length of Day
12h 14m
Tomorrow will be 3m 24s shorter.
Waning Crescent, 4% of the Moon is Illuminated
Today
Waning Crescent
Sep 24
New
Oct 1
First Quarter
Oct 8
Full
Oct 15
Last Quarter

Today's Extremes

State Highs State Lows

Community

WunderPhotos

Upload Photos

1,755,367 photos uploaded!

WunderBlogs® & News

Nearby

Snow Depth

Station Depth Elevation
No new snow has been reported.

Earthquake Activity

City Distance Mag. Time & Date
No recent earthquake activity has been reported nearby.
Minimum magnitude displayed is 2.5.

Coastal Water Temperatures

Place Temperature
No Stations Reporting

Nearby Weather Stations